KMML/MML METAR and TAF weather

Enter ICAO airport designator
Station Type Date Time Source
KMML METAR 2022/05/23 13:56 UTC NOAA

KMML 231356Z AUTO 17011KT 10SM CLR 13/00 A3033 RMK AO2 SLP276 T01280000


Station Type Date Time Source
KMML Decoded METAR 2022/05/23 13:56 UTC NOAA

Marshall, Southwest Minnesota Regional Airport - Marshall/Ryan Field, MN, United States (KMML) 44-27N 095-49W
May 23, 2022 - 09:56 AM EDT / 2022.05.23 1356 UTC
Wind: from the S (170 degrees) at 13 MPH (11 KT):0
Visibility: 10 mile(s):0
Sky conditions: clear
Temperature: 55.0 F (12.8 C)
Dew Point: 32.0 F (0.0 C)
Relative Humidity: 41%
Pressure (altimeter): 30.33 in. Hg (1027 hPa)
ob: KMML 231356Z AUTO 17011KT 10SM CLR 13/00 A3033 RMK AO2 SLP276 T01280000
cycle: 14

Station Type Date Time Source
KMML TAF UTC NOAA

Error!

Example: see airport list